Time;durP1;ratioP1;P1;durP2;ratioP2;P2;SDS_P1;SDS_P2;PMS_P1;PMS_P2;Temp;Humidity;BMP_temperature;BMP_pressure;BME280_temperature;BME280_humidity;BME280_pressure;Samples;Min_cycle;Max_cycle;Signal;HPM_P1;HPM_P2
2022/09/13 00:00:45;;;;;;;2.90;2.50;;;;;;;;;;5114153;27;20567;-65
2022/09/13 00:03:12;;;;;;;4.23;3.00;;;;;;;;;;5114370;27;20237;-65
2022/09/13 00:05:40;;;;;;;2.70;2.13;;;;;;;;;;5113644;27;20227;-65
2022/09/13 00:08:09;;;;;;;5.63;2.37;;;;;;;;;;5114016;27;20294;-66
2022/09/13 00:10:38;;;;;;;4.37;3.67;;;;;;;;;;5114389;27;20208;-65
2022/09/13 00:13:07;;;;;;;3.30;2.87;;;;;;;;;;5131089;27;20716;-65
2022/09/13 00:15:34;;;;;;;2.70;2.40;;;;;;;;;;5152961;27;20238;-65
2022/09/13 00:18:02;;;;;;;2.40;2.30;;;;;;;;;;5135013;27;20257;-65
2022/09/13 00:20:29;;;;;;;4.33;2.10;;;;;;;;;;5134506;27;20310;-65
2022/09/13 00:23:02;;;;;;;2.37;2.27;;;;;;;;;;5135087;27;20226;-65
2022/09/13 00:25:30;;;;;;;2.60;2.40;;;;;;;;;;5142707;27;20298;-65
2022/09/13 00:27:57;;;;;;;3.90;2.50;;;;;;;;;;5115516;27;20298;-65
2022/09/13 00:30:24;;;;;;;2.50;2.30;;;;;;;;;;5128662;27;20280;-65
2022/09/13 00:32:52;;;;;;;2.90;2.20;;;;;;;;;;5118900;27;20294;-65
2022/09/13 00:35:19;;;;;;;3.03;2.07;;;;;;;;;;5114293;27;20302;-65
2022/09/13 00:37:47;;;;;;;2.00;1.90;;;;;;;;;;5114143;27;20286;-65
2022/09/13 00:40:14;;;;;;;2.03;1.93;;;;;;;;;;5113280;27;20290;-65
2022/09/13 00:42:42;;;;;;;2.57;1.80;;;;;;;;;;5113991;27;20224;-65
2022/09/13 00:45:09;;;;;;;2.73;2.20;;;;;;;;;;5114518;27;20616;-65
2022/09/13 00:47:37;;;;;;;2.20;2.00;;;;;;;;;;5113595;27;20295;-65
2022/09/13 00:50:11;;;;;;;2.10;2.00;;;;;;;;;;5113970;27;20238;-65
2022/09/13 00:52:40;;;;;;;2.60;2.00;;;;;;;;;;5114211;27;20633;-64
2022/09/13 00:55:23;;;;;;;2.40;2.20;;;;;;;;;;5114579;27;20279;-66
2022/09/13 00:57:51;;;;;;;2.77;2.00;;;;;;;;;;5113669;27;20286;-66
2022/09/13 01:00:19;;;;;;;3.57;2.37;;;;;;;;;;5112850;27;20711;-64
2022/09/13 01:02:49;;;;;;;3.30;2.20;;;;;;;;;;5120217;27;20567;-65
2022/09/13 01:05:19;;;;;;;2.50;2.20;;;;;;;;;;5133699;27;20289;-65
2022/09/13 01:07:46;;;;;;;2.70;2.50;;;;;;;;;;5133591;27;20199;-65
2022/09/13 01:10:14;;;;;;;3.47;2.30;;;;;;;;;;5114944;27;20294;-65
2022/09/13 01:12:54;;;;;;;3.63;2.27;;;;;;;;;;5112934;27;20302;-65
2022/09/13 01:15:23;;;;;;;2.40;2.20;;;;;;;;;;5113358;27;20203;-65
2022/09/13 01:17:51;;;;;;;2.10;1.90;;;;;;;;;;5113089;27;20253;-65
2022/09/13 01:20:19;;;;;;;2.50;2.30;;;;;;;;;;5114223;27;20211;-64
2022/09/13 01:22:52;;;;;;;2.30;2.20;;;;;;;;;;5113009;27;20318;-65
2022/09/13 01:25:29;;;;;;;5.00;2.03;;;;;;;;;;5112845;27;20653;-65
2022/09/13 01:28:08;;;;;;;2.50;2.30;;;;;;;;;;5112543;28;20753;-65
2022/09/13 01:30:39;;;;;;;3.27;2.87;;;;;;;;;;5130978;27;20278;-65
2022/09/13 01:33:24;;;;;;;5.77;3.90;;;;;;;;;;5113011;28;20229;-65
2022/09/13 01:35:51;;;;;;;7.13;5.10;;;;;;;;;;5113005;28;20222;-65
2022/09/13 01:38:18;;;;;;;8.03;6.43;;;;;;;;;;5122414;28;20290;-65
2022/09/13 01:40:57;;;;;;;7.97;6.30;;;;;;;;;;5113187;28;20207;-64
2022/09/13 01:43:36;;;;;;;10.03;7.20;;;;;;;;;;5114089;28;20270;-65
2022/09/13 01:46:04;;;;;;;8.17;5.30;;;;;;;;;;5112595;28;20287;-65
2022/09/13 01:48:36;;;;;;;6.13;4.90;;;;;;;;;;5113330;28;20242;-65
2022/09/13 01:51:22;;;;;;;5.77;4.90;;;;;;;;;;5131653;28;20184;-64
2022/09/13 01:53:52;;;;;;;4.77;4.30;;;;;;;;;;5113455;28;20701;-65
2022/09/13 01:56:27;;;;;;;5.27;3.77;;;;;;;;;;5112384;28;20775;-65
2022/09/13 01:59:06;;;;;;;4.50;3.90;;;;;;;;;;5112707;28;20203;-64
2022/09/13 02:01:38;;;;;;;3.87;3.23;;;;;;;;;;5108899;28;20290;-65
2022/09/13 02:04:08;;;;;;;3.17;2.93;;;;;;;;;;5091381;28;20275;-64
2022/09/13 02:06:41;;;;;;;3.33;3.03;;;;;;;;;;5091802;28;20740;-65
2022/09/13 02:09:10;;;;;;;3.37;3.07;;;;;;;;;;5100671;28;20269;-66
2022/09/13 02:11:39;;;;;;;2.80;2.60;;;;;;;;;;5106215;28;20235;-64
2022/09/13 02:14:09;;;;;;;2.63;2.43;;;;;;;;;;5112226;28;20259;-65
2022/09/13 02:16:45;;;;;;;2.87;2.50;;;;;;;;;;5104370;28;20199;-65
2022/09/13 02:19:19;;;;;;;2.60;2.37;;;;;;;;;;5130556;28;20199;-65
2022/09/13 02:21:50;;;;;;;3.00;2.80;;;;;;;;;;5112331;28;20913;-65
2022/09/13 02:24:20;;;;;;;3.60;2.90;;;;;;;;;;5112232;28;20585;-65
2022/09/13 02:26:51;;;;;;;2.83;2.63;;;;;;;;;;5112132;28;20270;-65
2022/09/13 02:29:20;;;;;;;2.70;2.50;;;;;;;;;;5112935;28;20203;-65
2022/09/13 02:31:51;;;;;;;3.90;2.70;;;;;;;;;;5112272;28;20238;-65
2022/09/13 02:34:21;;;;;;;3.20;2.90;;;;;;;;;;5112271;27;20230;-64
2022/09/13 02:36:50;;;;;;;5.33;3.40;;;;;;;;;;5115991;27;20635;-65
2022/09/13 02:39:21;;;;;;;4.57;3.90;;;;;;;;;;5116037;27;20276;-65
2022/09/13 02:42:07;;;;;;;6.33;5.37;;;;;;;;;;5116040;27;20234;-65
2022/09/13 02:44:42;;;;;;;5.57;5.00;;;;;;;;;;5134233;27;20246;-65
2022/09/13 02:47:28;;;;;;;3.77;3.27;;;;;;;;;;5133644;27;20302;-65
2022/09/13 02:50:14;;;;;;;2.80;2.60;;;;;;;;;;5115914;27;20199;-64
2022/09/13 02:52:42;;;;;;;4.93;3.80;;;;;;;;;;5115657;27;20569;-64
2022/09/13 02:55:29;;;;;;;5.20;3.47;;;;;;;;;;5115925;27;20211;-65
2022/09/13 02:58:02;;;;;;;4.73;2.97;;;;;;;;;;5115405;27;20430;-66
2022/09/13 03:00:30;;;;;;;3.83;3.47;;;;;;;;;;5115700;27;20279;-65
2022/09/13 03:02:59;;;;;;;3.53;3.23;;;;;;;;;;5132487;27;21591;-65
2022/09/13 03:05:27;;;;;;;3.37;3.10;;;;;;;;;;5135463;27;20203;-65
2022/09/13 03:07:54;;;;;;;3.70;2.90;;;;;;;;;;5135652;27;20238;-65
2022/09/13 03:10:22;;;;;;;3.10;2.80;;;;;;;;;;5134288;27;20207;-65
2022/09/13 03:13:08;;;;;;;3.00;2.60;;;;;;;;;;5115255;27;20211;-65
2022/09/13 03:15:52;;;;;;;2.70;2.50;;;;;;;;;;5115146;27;20263;-65
2022/09/13 03:18:39;;;;;;;3.13;2.87;;;;;;;;;;5115691;27;20289;-65
2022/09/13 03:21:39;;;;;;;3.73;3.00;;;;;;;;;;5115090;27;20290;-65
2022/09/13 03:24:10;;;;;;;3.50;2.80;;;;;;;;;;5059997;27;20689;-65
2022/09/13 03:26:40;;;;;;;3.57;3.20;;;;;;;;;;5114750;27;20286;-65
2022/09/13 03:29:11;;;;;;;2.90;2.70;;;;;;;;;;5114864;27;20291;-65
2022/09/13 03:31:57;;;;;;;5.07;3.53;;;;;;;;;;5112582;27;20688;-65
2022/09/13 03:34:30;;;;;;;5.50;4.10;;;;;;;;;;5114528;27;20216;-65
2022/09/13 03:37:03;;;;;;;10.07;5.53;;;;;;;;;;5114731;27;20287;-65
2022/09/13 03:39:36;;;;;;;7.03;6.33;;;;;;;;;;5133263;27;20203;-65
2022/09/13 03:42:10;;;;;;;5.77;4.97;;;;;;;;;;5114700;27;20196;-65
2022/09/13 03:44:38;;;;;;;6.63;4.30;;;;;;;;;;5114902;27;20255;-65
2022/09/13 03:47:06;;;;;;;5.70;4.10;;;;;;;;;;5113155;27;20214;-64
2022/09/13 03:49:37;;;;;;;6.47;4.07;;;;;;;;;;5114630;27;20224;-65
2022/09/13 03:52:04;;;;;;;9.37;3.97;;;;;;;;;;5115209;27;20282;-64
2022/09/13 03:54:32;;;;;;;4.00;2.77;;;;;;;;;;5135406;27;20427;-65
2022/09/13 03:57:13;;;;;;;5.87;3.30;;;;;;;;;;5134663;27;20289;-64
2022/09/13 04:00:07;;;;;;;4.13;2.50;;;;;;;;;;5100497;27;20651;-65
2022/09/13 04:02:35;;;;;;;5.50;2.97;;;;;;;;;;5103689;27;20231;-65
2022/09/13 04:05:03;;;;;;;9.93;3.10;;;;;;;;;;5114404;27;20310;-65
2022/09/13 04:07:30;;;;;;;5.50;2.67;;;;;;;;;;5121487;27;20203;-67
2022/09/13 04:09:58;;;;;;;6.43;2.83;;;;;;;;;;5124263;27;20239;-66
2022/09/13 04:12:27;;;;;;;7.90;2.40;;;;;;;;;;5114977;27;20449;-66
2022/09/13 04:14:54;;;;;;;6.00;2.80;;;;;;;;;;5114746;27;20310;-65
2022/09/13 04:17:21;;;;;;;4.67;2.93;;;;;;;;;;5113460;27;20230;-66
2022/09/13 04:19:49;;;;;;;2.77;2.57;;;;;;;;;;5114359;27;20283;-66
2022/09/13 04:22:16;;;;;;;5.20;2.70;;;;;;;;;;5113947;27;20247;-65
2022/09/13 04:24:44;;;;;;;4.27;2.70;;;;;;;;;;5122042;27;20253;-65
2022/09/13 04:27:11;;;;;;;6.27;2.80;;;;;;;;;;5116166;27;20286;-66
2022/09/13 04:29:39;;;;;;;4.63;3.40;;;;;;;;;;5113682;27;20638;-66
2022/09/13 04:32:06;;;;;;;2.63;2.43;;;;;;;;;;5113695;27;20290;-65
2022/09/13 04:34:33;;;;;;;2.70;2.50;;;;;;;;;;5113970;27;20310;-66
2022/09/13 04:37:01;;;;;;;3.10;2.60;;;;;;;;;;5113705;27;20216;-66
2022/09/13 04:39:28;;;;;;;3.03;2.63;;;;;;;;;;5113038;27;20283;-65
2022/09/13 04:41:56;;;;;;;4.03;2.60;;;;;;;;;;5113802;27;20286;-66
2022/09/13 04:44:23;;;;;;;4.17;2.50;;;;;;;;;;5113545;27;20227;-66
2022/09/13 04:46:51;;;;;;;3.10;2.80;;;;;;;;;;5113219;27;20691;-65
2022/09/13 04:49:19;;;;;;;3.97;2.77;;;;;;;;;;5113525;27;20199;-66
2022/09/13 04:51:46;;;;;;;3.30;2.50;;;;;;;;;;5113904;27;20198;-66
2022/09/13 04:54:14;;;;;;;3.67;2.80;;;;;;;;;;5113436;27;20226;-65
2022/09/13 04:56:46;;;;;;;2.70;2.50;;;;;;;;;;5113121;27;20203;-65
2022/09/13 04:59:13;;;;;;;3.47;3.17;;;;;;;;;;5130747;27;20676;-65
2022/09/13 05:01:41;;;;;;;3.23;3.00;;;;;;;;;;5128084;27;20239;-65
2022/09/13 05:04:09;;;;;;;3.30;3.00;;;;;;;;;;5133257;27;20589;-66
2022/09/13 05:06:36;;;;;;;3.20;2.90;;;;;;;;;;5133784;27;20203;-65
2022/09/13 05:09:04;;;;;;;3.50;2.90;;;;;;;;;;5125442;27;20203;-65
2022/09/13 05:11:31;;;;;;;3.17;2.87;;;;;;;;;;5112934;27;20242;-66
2022/09/13 05:14:00;;;;;;;2.67;2.47;;;;;;;;;;5113519;27;20227;-65
2022/09/13 05:16:28;;;;;;;5.10;2.90;;;;;;;;;;5113105;27;20446;-66
2022/09/13 05:18:57;;;;;;;2.67;2.50;;;;;;;;;;5129647;27;20706;-66
2022/09/13 05:21:24;;;;;;;4.73;2.73;;;;;;;;;;5134279;27;20259;-65
2022/09/13 05:23:52;;;;;;;7.53;3.43;;;;;;;;;;5133655;27;20718;-65
2022/09/13 05:26:20;;;;;;;3.30;2.70;;;;;;;;;;5133318;27;20257;-65
2022/09/13 05:28:48;;;;;;;4.23;2.60;;;;;;;;;;5118082;27;20279;-66
2022/09/13 05:31:17;;;;;;;2.80;2.60;;;;;;;;;;5113211;27;20339;-66
2022/09/13 05:33:46;;;;;;;3.47;2.40;;;;;;;;;;5113274;27;20234;-66
2022/09/13 05:36:13;;;;;;;3.00;2.60;;;;;;;;;;5131681;27;20245;-65
2022/09/13 05:38:40;;;;;;;2.93;2.63;;;;;;;;;;5133223;27;20289;-66
2022/09/13 05:41:08;;;;;;;4.93;2.80;;;;;;;;;;5133736;27;20205;-65
2022/09/13 05:43:35;;;;;;;3.57;2.90;;;;;;;;;;5133176;27;20313;-65
2022/09/13 05:46:07;;;;;;;3.10;2.80;;;;;;;;;;5151701;27;20281;-66
2022/09/13 05:48:34;;;;;;;2.93;2.60;;;;;;;;;;5133360;27;20229;-65
2022/09/13 05:51:09;;;;;;;3.03;2.40;;;;;;;;;;5132716;27;20206;-65
2022/09/13 05:53:41;;;;;;;2.67;2.50;;;;;;;;;;5133419;27;20215;-65
2022/09/13 05:56:09;;;;;;;3.10;2.80;;;;;;;;;;5133069;27;20605;-64
2022/09/13 05:58:43;;;;;;;2.88;2.50;;;;;;;;;;5134783;27;20287;-65
2022/09/13 06:01:11;;;;;;;2.93;2.40;;;;;;;;;;5110222;28;20234;-65
2022/09/13 06:03:39;;;;;;;3.00;2.80;;;;;;;;;;5111984;28;20212;-65
2022/09/13 06:06:06;;;;;;;5.47;2.87;;;;;;;;;;5112486;28;20223;-66
2022/09/13 06:08:34;;;;;;;4.37;2.67;;;;;;;;;;5112748;28;20238;-65
2022/09/13 06:11:02;;;;;;;4.32;2.78;;;;;;;;;;5114790;27;20210;-65
2022/09/13 06:13:29;;;;;;;2.35;2.13;;;;;;;;;;5115240;27;20306;-65
2022/09/13 06:15:57;;;;;;;2.83;2.50;;;;;;;;;;5116114;27;20494;-67
2022/09/13 06:18:25;;;;;;;3.60;2.38;;;;;;;;;;5116240;27;20207;-66
2022/09/13 06:21:04;;;;;;;4.05;2.20;;;;;;;;;;5116437;27;20665;-66
2022/09/13 06:23:31;;;;;;;2.47;2.20;;;;;;;;;;5116443;27;20261;-65
2022/09/13 06:26:00;;;;;;;2.88;2.50;;;;;;;;;;5116670;27;20652;-66
2022/09/13 06:28:27;;;;;;;3.10;2.38;;;;;;;;;;5143194;27;20236;-65
2022/09/13 06:31:01;;;;;;;2.40;2.25;;;;;;;;;;5143099;27;20231;-65
2022/09/13 06:33:28;;;;;;;3.45;2.50;;;;;;;;;;5116070;27;20716;-66
2022/09/13 06:35:59;;;;;;;7.53;2.72;;;;;;;;;;5116187;27;20630;-65
2022/09/13 06:38:26;;;;;;;2.50;2.30;;;;;;;;;;5116151;27;20293;-66
2022/09/13 06:41:05;;;;;;;7.45;2.35;;;;;;;;;;5116423;27;20294;-66
2022/09/13 06:43:32;;;;;;;2.60;2.28;;;;;;;;;;5116732;27;20372;-64
2022/09/13 06:46:00;;;;;;;3.78;2.35;;;;;;;;;;5115984;27;20653;-66
2022/09/13 06:48:31;;;;;;;2.67;2.47;;;;;;;;;;5116521;27;20625;-64
2022/09/13 06:50:59;;;;;;;3.15;2.30;;;;;;;;;;5115647;27;20290;-66
2022/09/13 06:53:27;;;;;;;2.75;2.22;;;;;;;;;;5115993;27;20306;-68
2022/09/13 06:56:21;;;;;;;3.10;2.30;;;;;;;;;;5115361;27;20294;-66
2022/09/13 06:58:49;;;;;;;2.88;2.20;;;;;;;;;;5111523;27;20268;-66
2022/09/13 07:01:22;;;;;;;3.95;2.20;;;;;;;;;;5116112;27;20298;-65
2022/09/13 07:03:51;;;;;;;2.20;2.10;;;;;;;;;;5115621;27;20227;-64
2022/09/13 07:06:20;;;;;;;4.10;2.30;;;;;;;;;;5114436;27;20195;-67
2022/09/13 07:08:49;;;;;;;2.17;2.08;;;;;;;;;;5115447;27;20286;-65
2022/09/13 07:11:18;;;;;;;2.33;2.10;;;;;;;;;;5115330;27;20281;-65
2022/09/13 07:13:49;;;;;;;2.67;2.05;;;;;;;;;;5115260;27;20310;-66
2022/09/13 07:16:17;;;;;;;2.10;1.98;;;;;;;;;;5133813;27;20281;-63
2022/09/13 07:18:45;;;;;;;2.38;1.85;;;;;;;;;;5115035;27;20199;-66
2022/09/13 07:21:12;;;;;;;2.92;1.88;;;;;;;;;;5115050;27;20760;-65
2022/09/13 07:23:40;;;;;;;2.10;2.00;;;;;;;;;;5115028;27;20630;-65
2022/09/13 07:26:07;;;;;;;2.42;1.90;;;;;;;;;;5114677;27;20219;-66
2022/09/13 07:28:36;;;;;;;2.13;1.98;;;;;;;;;;5114740;27;20715;-66
2022/09/13 07:31:04;;;;;;;2.38;2.17;;;;;;;;;;5114754;27;20200;-65
2022/09/13 07:33:31;;;;;;;2.70;1.67;;;;;;;;;;5115454;27;20228;-66
2022/09/13 07:36:00;;;;;;;1.65;1.58;;;;;;;;;;5114839;27;20286;-65
2022/09/13 07:38:27;;;;;;;5.25;1.90;;;;;;;;;;5114670;27;20744;-66
2022/09/13 07:40:56;;;;;;;1.80;1.67;;;;;;;;;;5114352;27;20290;-65
2022/09/13 07:43:24;;;;;;;2.58;1.83;;;;;;;;;;5114612;27;20731;-66
2022/09/13 07:45:59;;;;;;;1.80;1.70;;;;;;;;;;5114578;27;20225;-65
2022/09/13 07:48:27;;;;;;;3.38;1.63;;;;;;;;;;5115371;27;20203;-66
2022/09/13 07:51:09;;;;;;;1.98;1.50;;;;;;;;;;5133473;27;20207;-66
2022/09/13 07:53:37;;;;;;;2.47;1.60;;;;;;;;;;5114937;27;20525;-66
2022/09/13 07:56:08;;;;;;;1.95;1.30;;;;;;;;;;5114351;27;20310;-65
2022/09/13 07:58:36;;;;;;;1.85;1.52;;;;;;;;;;5132340;27;20294;-66
2022/09/13 08:01:08;;;;;;;1.52;1.42;;;;;;;;;;5114301;27;20249;-66
2022/09/13 08:03:35;;;;;;;1.60;1.50;;;;;;;;;;5114733;27;20258;-66
2022/09/13 08:06:04;;;;;;;1.75;1.48;;;;;;;;;;5113592;27;20223;-66
2022/09/13 08:08:32;;;;;;;2.22;1.33;;;;;;;;;;5114529;27;20688;-66
2022/09/13 08:11:00;;;;;;;1.98;1.55;;;;;;;;;;5113801;27;20287;-66
2022/09/13 08:13:27;;;;;;;1.50;1.40;;;;;;;;;;5113567;27;20696;-65
2022/09/13 08:15:56;;;;;;;8.90;1.70;;;;;;;;;;5104688;28;20492;-65
2022/09/13 08:18:23;;;;;;;1.92;1.48;;;;;;;;;;5113098;27;20336;-66
2022/09/13 08:20:50;;;;;;;2.42;1.30;;;;;;;;;;5114098;27;20295;-66
2022/09/13 08:23:18;;;;;;;5.15;1.38;;;;;;;;;;5113514;27;20258;-66
2022/09/13 08:25:45;;;;;;;1.00;1.00;;;;;;;;;;5114096;27;20302;-65
2022/09/13 08:28:16;;;;;;;1.15;1.10;;;;;;;;;;5113782;27;20298;-66
2022/09/13 08:30:44;;;;;;;3.42;1.42;;;;;;;;;;5113693;27;20227;-64
2022/09/13 08:33:11;;;;;;;0.85;0.85;;;;;;;;;;5113085;27;20227;-66
2022/09/13 08:35:39;;;;;;;0.80;0.80;;;;;;;;;;5113479;27;20245;-64
2022/09/13 08:38:06;;;;;;;1.55;1.00;;;;;;;;;;5113972;27;20286;-66
2022/09/13 08:40:39;;;;;;;0.95;0.80;;;;;;;;;;5113752;27;20250;-66
2022/09/13 08:43:16;;;;;;;2.22;0.93;;;;;;;;;;5131527;27;20262;-65
2022/09/13 08:45:49;;;;;;;0.93;0.80;;;;;;;;;;5133746;27;20267;-66
2022/09/13 08:48:18;;;;;;;1.05;0.80;;;;;;;;;;5134249;27;20198;-66
2022/09/13 08:50:47;;;;;;;1.15;0.82;;;;;;;;;;5133717;27;20294;-66
2022/09/13 08:53:17;;;;;;;0.65;0.65;;;;;;;;;;5133993;27;20315;-66
2022/09/13 08:55:55;;;;;;;1.05;0.80;;;;;;;;;;5134043;27;20566;-66
2022/09/13 08:58:43;;;;;;;1.88;1.10;;;;;;;;;;5122725;27;20215;-66
2022/09/13 09:01:35;;;;;;;1.13;1.02;;;;;;;;;;5113396;27;20200;-66
2022/09/13 09:04:08;;;;;;;0.80;0.80;;;;;;;;;;5113403;27;20235;-65
2022/09/13 09:06:36;;;;;;;1.15;0.80;;;;;;;;;;5113257;27;20644;-65
2022/09/13 09:09:03;;;;;;;1.40;1.00;;;;;;;;;;5112665;27;20199;-66
2022/09/13 09:11:35;;;;;;;0.80;0.80;;;;;;;;;;5113292;27;20205;-66
2022/09/13 09:14:06;;;;;;;0.90;0.90;;;;;;;;;;5113577;27;20223;-66
2022/09/13 09:16:39;;;;;;;0.70;0.70;;;;;;;;;;5113604;27;20210;-66
2022/09/13 09:19:12;;;;;;;1.00;0.73;;;;;;;;;;5113205;27;20246;-65
2022/09/13 09:21:40;;;;;;;1.23;0.95;;;;;;;;;;5113632;27;20286;-65
2022/09/13 09:24:10;;;;;;;1.35;0.85;;;;;;;;;;5119453;27;20254;-66
2022/09/13 09:26:37;;;;;;;3.53;0.95;;;;;;;;;;5122253;27;20306;-65
2022/09/13 09:29:10;;;;;;;1.55;0.77;;;;;;;;;;5113520;27;20249;-65
2022/09/13 09:31:54;;;;;;;1.10;0.80;;;;;;;;;;5113552;28;20286;-65
2022/09/13 09:34:24;;;;;;;2.05;0.77;;;;;;;;;;5112537;27;20235;-66
2022/09/13 09:36:51;;;;;;;0.80;0.80;;;;;;;;;;5112948;27;20239;-65
2022/09/13 09:39:19;;;;;;;0.50;0.50;;;;;;;;;;5113096;28;20290;-65
2022/09/13 09:41:46;;;;;;;1.10;0.73;;;;;;;;;;5113017;28;20681;-66
2022/09/13 09:44:13;;;;;;;1.05;0.55;;;;;;;;;;5113088;28;20576;-64
2022/09/13 09:46:41;;;;;;;2.03;0.57;;;;;;;;;;5116500;27;20306;-65
2022/09/13 09:52:14;;;;;;;0.98;0.50;;;;;;;;;;5135594;27;20209;-64
2022/09/13 09:54:42;;;;;;;0.70;0.70;;;;;;;;;;5116979;27;20266;-66
2022/09/13 09:57:10;;;;;;;0.57;0.50;;;;;;;;;;5116700;27;20623;-65
2022/09/13 09:59:37;;;;;;;1.33;0.60;;;;;;;;;;5116826;27;20199;-66
2022/09/13 10:02:21;;;;;;;0.50;0.50;;;;;;;;;;5116750;27;20207;-66
2022/09/13 10:05:00;;;;;;;0.40;0.40;;;;;;;;;;5116291;27;20246;-67
2022/09/13 10:07:33;;;;;;;0.57;0.50;;;;;;;;;;5116321;27;20326;-65
2022/09/13 10:10:05;;;;;;;0.50;0.50;;;;;;;;;;5116650;27;20617;-64
2022/09/13 10:12:33;;;;;;;2.65;0.63;;;;;;;;;;5116727;27;20650;-65
2022/09/13 10:15:21;;;;;;;1.58;0.60;;;;;;;;;;5116444;27;20303;-66
2022/09/13 10:18:01;;;;;;;0.57;0.57;;;;;;;;;;5116222;27;20500;-65
2022/09/13 10:20:30;;;;;;;1.20;0.70;;;;;;;;;;5116200;27;20671;-65
2022/09/13 10:23:10;;;;;;;1.67;0.40;;;;;;;;;;5116249;27;20242;-65
2022/09/13 10:25:38;;;;;;;1.27;0.70;;;;;;;;;;5095664;28;20277;-65
2022/09/13 10:28:10;;;;;;;3.53;0.90;;;;;;;;;;5105303;27;20286;-64
2022/09/13 10:30:37;;;;;;;0.52;0.52;;;;;;;;;;5115938;27;20286;-67
2022/09/13 10:33:05;;;;;;;0.75;0.50;;;;;;;;;;5115804;27;20228;-66
2022/09/13 10:35:33;;;;;;;0.80;0.60;;;;;;;;;;5116073;27;20234;-66
2022/09/13 10:38:00;;;;;;;0.50;0.50;;;;;;;;;;5116010;27;20287;-65
2022/09/13 10:40:38;;;;;;;1.40;0.50;;;;;;;;;;5116109;27;20652;-65
2022/09/13 10:43:14;;;;;;;0.50;0.50;;;;;;;;;;5115836;27;20306;-66
2022/09/13 10:45:41;;;;;;;0.75;0.52;;;;;;;;;;5116000;27;20217;-65
2022/09/13 10:48:16;;;;;;;2.45;0.60;;;;;;;;;;5115233;27;20311;-67
2022/09/13 10:51:00;;;;;;;0.52;0.52;;;;;;;;;;5116187;27;20225;-65
2022/09/13 10:53:41;;;;;;;1.38;0.55;;;;;;;;;;5115558;27;20815;-66
2022/09/13 10:56:19;;;;;;;3.00;0.45;;;;;;;;;;5115141;27;20203;-66
2022/09/13 10:58:46;;;;;;;0.50;0.50;;;;;;;;;;5117480;27;20230;-65
2022/09/13 11:01:29;;;;;;;0.50;0.40;;;;;;;;;;5115517;27;20295;-66
2022/09/13 11:04:09;;;;;;;2.53;0.45;;;;;;;;;;5115643;27;20311;-68
2022/09/13 11:06:48;;;;;;;0.75;0.40;;;;;;;;;;5114852;27;20227;-65
2022/09/13 11:09:38;;;;;;;0.57;0.40;;;;;;;;;;5115344;27;20645;-66
2022/09/13 11:12:17;;;;;;;2.20;0.60;;;;;;;;;;5115332;27;20207;-64
2022/09/13 11:15:08;;;;;;;1.08;0.45;;;;;;;;;;5122369;27;20219;-64
2022/09/13 11:17:35;;;;;;;0.50;0.50;;;;;;;;;;5088910;27;20286;-64
2022/09/13 11:20:21;;;;;;;0.50;0.50;;;;;;;;;;5135600;27;20286;-67
2022/09/13 11:22:58;;;;;;;0.28;0.28;;;;;;;;;;5117465;27;20321;-65
2022/09/13 11:25:34;;;;;;;0.20;0.20;;;;;;;;;;5115382;27;20306;-64
2022/09/13 11:28:25;;;;;;;1.08;0.20;;;;;;;;;;5114541;27;20282;-65
2022/09/13 11:30:58;;;;;;;0.30;0.30;;;;;;;;;;5114497;27;20286;-67
2022/09/13 11:33:34;;;;;;;0.30;0.30;;;;;;;;;;5114902;27;20330;-65
2022/09/13 11:36:34;;;;;;;0.13;0.13;;;;;;;;;;5115032;27;20286;-66
2022/09/13 11:39:16;;;;;;;0.32;0.25;;;;;;;;;;5066337;27;20200;-67
2022/09/13 11:41:46;;;;;;;1.25;0.40;;;;;;;;;;5129665;27;20637;-66
2022/09/13 11:44:22;;;;;;;0.70;0.30;;;;;;;;;;5115040;27;20318;-64
2022/09/13 11:47:08;;;;;;;0.13;0.13;;;;;;;;;;5133647;27;20678;-66
2022/09/13 11:49:54;;;;;;;0.10;0.10;;;;;;;;;;5116783;27;20211;-65
2022/09/13 11:52:53;;;;;;;0.25;0.20;;;;;;;;;;5114843;27;20295;-65
2022/09/13 11:55:24;;;;;;;0.20;0.20;;;;;;;;;;5060411;27;20307;-64
2022/09/13 11:58:00;;;;;;;0.20;0.20;;;;;;;;;;5115855;27;20203;-66
2022/09/13 12:00:48;;;;;;;0.20;0.20;;;;;;;;;;5114547;27;20205;-65
2022/09/13 12:03:25;;;;;;;0.17;0.17;;;;;;;;;;5114764;27;20569;-65
2022/09/13 12:06:00;;;;;;;0.60;0.38;;;;;;;;;;5114562;27;20690;-65
2022/09/13 12:08:31;;;;;;;0.25;0.25;;;;;;;;;;5120648;27;20295;-67
2022/09/13 12:11:08;;;;;;;0.32;0.32;;;;;;;;;;5114209;27;20290;-66
2022/09/13 12:13:45;;;;;;;0.47;0.35;;;;;;;;;;5115401;27;20253;-65
2022/09/13 12:16:23;;;;;;;0.50;0.50;;;;;;;;;;5132222;27;20209;-67
2022/09/13 12:18:53;;;;;;;0.38;0.38;;;;;;;;;;5114328;27;20210;-65
2022/09/13 12:21:22;;;;;;;0.30;0.30;;;;;;;;;;5114220;27;20284;-65
2022/09/13 12:23:57;;;;;;;0.40;0.40;;;;;;;;;;5132848;27;20273;-65
2022/09/13 12:26:29;;;;;;;1.13;0.30;;;;;;;;;;5113687;27;20226;-66
2022/09/13 12:28:59;;;;;;;0.35;0.30;;;;;;;;;;5113555;27;20171;-66
2022/09/13 12:31:27;;;;;;;0.52;0.40;;;;;;;;;;5113503;27;20207;-66
2022/09/13 12:33:55;;;;;;;0.80;0.38;;;;;;;;;;5113971;27;20228;-65
2022/09/13 12:36:29;;;;;;;0.30;0.30;;;;;;;;;;5113637;27;20298;-66
2022/09/13 12:39:05;;;;;;;0.30;0.30;;;;;;;;;;5113902;27;20291;-65
2022/09/13 12:41:32;;;;;;;1.00;0.40;;;;;;;;;;5134246;27;20660;-64
2022/09/13 12:44:05;;;;;;;0.40;0.40;;;;;;;;;;5134109;27;20223;-65
2022/09/13 12:46:53;;;;;;;0.50;0.50;;;;;;;;;;5134011;27;20310;-66
2022/09/13 12:49:20;;;;;;;4.78;1.15;;;;;;;;;;5134451;27;20274;-66
2022/09/13 12:51:51;;;;;;;1.95;0.50;;;;;;;;;;5134575;27;20199;-66
2022/09/13 12:54:34;;;;;;;1.98;0.57;;;;;;;;;;5134134;27;20503;-66
2022/09/13 12:57:01;;;;;;;0.30;0.30;;;;;;;;;;5124511;27;20252;-66
2022/09/13 12:59:34;;;;;;;1.35;0.30;;;;;;;;;;5112930;27;20908;-66
2022/09/13 13:02:25;;;;;;;0.52;0.40;;;;;;;;;;5113346;27;20210;-65
2022/09/13 13:04:56;;;;;;;1.48;0.30;;;;;;;;;;5102870;27;20227;-65
2022/09/13 13:07:24;;;;;;;1.58;0.50;;;;;;;;;;5111176;27;20760;-66
2022/09/13 13:09:53;;;;;;;0.88;0.40;;;;;;;;;;5114743;27;20209;-67
2022/09/13 13:12:30;;;;;;;0.93;0.60;;;;;;;;;;5127058;27;20616;-66
2022/09/13 13:14:58;;;;;;;0.30;0.30;;;;;;;;;;5115752;27;20297;-66
2022/09/13 13:17:34;;;;;;;1.40;0.50;;;;;;;;;;5113255;27;20225;-66
2022/09/13 13:20:21;;;;;;;0.45;0.30;;;;;;;;;;5113158;27;20537;-65
2022/09/13 13:22:49;;;;;;;0.88;0.30;;;;;;;;;;5113051;27;20260;-66
2022/09/13 13:25:25;;;;;;;0.40;0.40;;;;;;;;;;5112961;28;20293;-66
2022/09/13 13:27:54;;;;;;;0.45;0.35;;;;;;;;;;5112636;27;20278;-65
2022/09/13 13:30:34;;;;;;;0.40;0.40;;;;;;;;;;5113113;27;20199;-65
2022/09/13 13:33:17;;;;;;;1.00;0.40;;;;;;;;;;5114594;28;20227;-66
2022/09/13 13:35:44;;;;;;;2.58;0.50;;;;;;;;;;5112311;28;20249;-66
2022/09/13 13:38:16;;;;;;;1.75;0.50;;;;;;;;;;5112748;27;20199;-66
2022/09/13 13:40:45;;;;;;;1.45;0.50;;;;;;;;;;5112567;28;20282;-66
2022/09/13 13:43:28;;;;;;;2.13;0.52;;;;;;;;;;5112811;28;20565;-66
2022/09/13 13:45:57;;;;;;;0.82;0.65;;;;;;;;;;5112301;28;20227;-66
2022/09/13 13:48:35;;;;;;;0.80;0.40;;;;;;;;;;5124801;27;20202;-67
2022/09/13 13:51:32;;;;;;;0.75;0.65;;;;;;;;;;5133476;27;20293;-65
2022/09/13 13:54:04;;;;;;;0.82;0.50;;;;;;;;;;5112327;27;20223;-66
2022/09/13 13:56:45;;;;;;;0.75;0.60;;;;;;;;;;5132815;27;20262;-66
2022/09/13 13:59:16;;;;;;;2.67;0.50;;;;;;;;;;5114345;28;20204;-66
2022/09/13 14:01:46;;;;;;;0.60;0.60;;;;;;;;;;5112872;28;20290;-67
2022/09/13 14:04:32;;;;;;;0.57;0.52;;;;;;;;;;5112701;27;20269;-66
2022/09/13 14:07:04;;;;;;;0.70;0.70;;;;;;;;;;5110153;28;20374;-66
2022/09/13 14:09:57;;;;;;;0.65;0.50;;;;;;;;;;5094252;28;20734;-66
2022/09/13 14:12:32;;;;;;;0.50;0.50;;;;;;;;;;5092344;28;20291;-67
2022/09/13 14:15:08;;;;;;;2.05;0.50;;;;;;;;;;5110238;28;20704;-66
2022/09/13 14:17:56;;;;;;;2.45;0.60;;;;;;;;;;5099745;28;20206;-65
2022/09/13 14:20:25;;;;;;;0.60;0.60;;;;;;;;;;5091389;27;20207;-65
2022/09/13 14:23:10;;;;;;;1.95;0.70;;;;;;;;;;5147047;27;20238;-66
2022/09/13 14:25:38;;;;;;;1.70;0.70;;;;;;;;;;5154862;27;20207;-66
2022/09/13 14:28:06;;;;;;;1.60;0.60;;;;;;;;;;5117227;28;20199;-66
2022/09/13 14:30:38;;;;;;;2.75;0.80;;;;;;;;;;5112675;27;20230;-66
2022/09/13 14:33:07;;;;;;;2.38;0.90;;;;;;;;;;5115979;27;20642;-66
2022/09/13 14:35:39;;;;;;;1.30;0.68;;;;;;;;;;5117310;27;20204;-66
2022/09/13 14:38:18;;;;;;;1.05;0.70;;;;;;;;;;5117410;27;20200;-66
2022/09/13 14:40:50;;;;;;;1.10;0.73;;;;;;;;;;5112343;28;20634;-66
2022/09/13 14:43:22;;;;;;;0.60;0.60;;;;;;;;;;5113462;27;20268;-65
2022/09/13 14:45:56;;;;;;;1.98;0.85;;;;;;;;;;5115525;27;20250;-66
2022/09/13 14:48:23;;;;;;;1.23;0.80;;;;;;;;;;5115923;27;20209;-65
2022/09/13 14:50:59;;;;;;;0.60;0.60;;;;;;;;;;5114859;27;20227;-66
2022/09/13 14:53:27;;;;;;;0.60;0.60;;;;;;;;;;5115834;27;20298;-66
2022/09/13 14:55:56;;;;;;;1.13;0.50;;;;;;;;;;5112538;27;20219;-66
2022/09/13 14:58:28;;;;;;;0.55;0.40;;;;;;;;;;5113713;27;20294;-66
2022/09/13 15:01:01;;;;;;;1.63;0.63;;;;;;;;;;5115560;27;20286;-66
2022/09/13 15:03:29;;;;;;;1.52;0.70;;;;;;;;;;5115159;27;20266;-67
2022/09/13 15:05:58;;;;;;;1.52;0.65;;;;;;;;;;5114751;27;20208;-66
2022/09/13 15:08:45;;;;;;;2.28;0.98;;;;;;;;;;5133332;27;20253;-66
2022/09/13 15:11:26;;;;;;;0.60;0.60;;;;;;;;;;5114912;27;20298;-66
2022/09/13 15:14:11;;;;;;;0.55;0.55;;;;;;;;;;5115852;27;20768;-66
2022/09/13 15:16:48;;;;;;;0.75;0.60;;;;;;;;;;5131157;27;20331;-67